sensor_id;sensor_type;location;lat;lon;timestamp;P1;durP1;ratioP1;P2;durP2;ratioP2
55684;SDS011;41883;49.544;8.646;2022-09-03T00:01:45;2.13;;;0.80;;
55684;SDS011;41883;49.544;8.646;2022-09-03T00:04:21;1.52;;;0.73;;
55684;SDS011;41883;49.544;8.646;2022-09-03T00:07:01;1.00;;;0.70;;
55684;SDS011;41883;49.544;8.646;2022-09-03T00:09:31;1.52;;;0.98;;
55684;SDS011;41883;49.544;8.646;2022-09-03T00:12:13;1.52;;;1.00;;
55684;SDS011;41883;49.544;8.646;2022-09-03T00:14:49;1.65;;;0.90;;
55684;SDS011;41883;49.544;8.646;2022-09-03T00:17:21;1.42;;;0.90;;
55684;SDS011;41883;49.544;8.646;2022-09-03T00:20:03;1.60;;;0.70;;
55684;SDS011;41883;49.544;8.646;2022-09-03T00:22:33;1.48;;;0.80;;
55684;SDS011;41883;49.544;8.646;2022-09-03T00:25:04;2.45;;;0.70;;
55684;SDS011;41883;49.544;8.646;2022-09-03T00:27:36;1.65;;;0.80;;
55684;SDS011;41883;49.544;8.646;2022-09-03T00:30:05;1.92;;;0.80;;
55684;SDS011;41883;49.544;8.646;2022-09-03T00:35:31;1.30;;;0.80;;
55684;SDS011;41883;49.544;8.646;2022-09-03T00:37:59;1.38;;;0.80;;
55684;SDS011;41883;49.544;8.646;2022-09-03T00:52:04;3.53;;;1.10;;
55684;SDS011;41883;49.544;8.646;2022-09-03T01:00:07;1.90;;;0.85;;
55684;SDS011;41883;49.544;8.646;2022-09-03T01:02:44;1.67;;;0.80;;
55684;SDS011;41883;49.544;8.646;2022-09-03T01:05:27;2.03;;;1.00;;
55684;SDS011;41883;49.544;8.646;2022-09-03T01:10:57;1.05;;;0.70;;
55684;SDS011;41883;49.544;8.646;2022-09-03T01:16:25;1.50;;;0.80;;
55684;SDS011;41883;49.544;8.646;2022-09-03T01:21:54;1.40;;;0.75;;
55684;SDS011;41883;49.544;8.646;2022-09-03T01:40:55;1.42;;;0.82;;
55684;SDS011;41883;49.544;8.646;2022-09-03T01:46:24;2.45;;;0.80;;
55684;SDS011;41883;49.544;8.646;2022-09-03T01:51:30;1.20;;;0.80;;
55684;SDS011;41883;49.544;8.646;2022-09-03T02:01:44;0.60;;;0.50;;
55684;SDS011;41883;49.544;8.646;2022-09-03T02:04:18;1.27;;;0.80;;
55684;SDS011;41883;49.544;8.646;2022-09-03T02:06:47;1.05;;;0.63;;
55684;SDS011;41883;49.544;8.646;2022-09-03T02:09:15;1.55;;;0.93;;
55684;SDS011;41883;49.544;8.646;2022-09-03T02:11:41;1.23;;;0.70;;
55684;SDS011;41883;49.544;8.646;2022-09-03T02:14:10;1.50;;;0.70;;
55684;SDS011;41883;49.544;8.646;2022-09-03T02:16:36;1.30;;;0.70;;
55684;SDS011;41883;49.544;8.646;2022-09-03T02:19:03;1.25;;;0.70;;
55684;SDS011;41883;49.544;8.646;2022-09-03T02:21:35;0.60;;;0.50;;
55684;SDS011;41883;49.544;8.646;2022-09-03T02:24:03;0.93;;;0.60;;
55684;SDS011;41883;49.544;8.646;2022-09-03T02:26:29;0.90;;;0.60;;
55684;SDS011;41883;49.544;8.646;2022-09-03T02:28:55;1.45;;;0.80;;
55684;SDS011;41883;49.544;8.646;2022-09-03T02:31:21;1.15;;;0.73;;
55684;SDS011;41883;49.544;8.646;2022-09-03T02:33:47;1.05;;;0.70;;
55684;SDS011;41883;49.544;8.646;2022-09-03T02:36:16;1.25;;;0.70;;
55684;SDS011;41883;49.544;8.646;2022-09-03T02:38:44;1.60;;;0.73;;
55684;SDS011;41883;49.544;8.646;2022-09-03T02:41:10;1.77;;;0.60;;
55684;SDS011;41883;49.544;8.646;2022-09-03T02:44:22;0.82;;;0.70;;
55684;SDS011;41883;49.544;8.646;2022-09-03T02:46:44;1.40;;;0.90;;
55684;SDS011;41883;49.544;8.646;2022-09-03T02:49:14;2.20;;;1.00;;
55684;SDS011;41883;49.544;8.646;2022-09-03T02:51:41;1.58;;;0.77;;
55684;SDS011;41883;49.544;8.646;2022-09-03T02:54:09;1.30;;;0.88;;
55684;SDS011;41883;49.544;8.646;2022-09-03T02:56:35;1.85;;;0.80;;
55684;SDS011;41883;49.544;8.646;2022-09-03T02:59:02;1.15;;;0.80;;
55684;SDS011;41883;49.544;8.646;2022-09-03T03:01:28;1.83;;;0.70;;
55684;SDS011;41883;49.544;8.646;2022-09-03T03:03:54;1.10;;;0.82;;
55684;SDS011;41883;49.544;8.646;2022-09-03T03:06:19;1.13;;;0.80;;
55684;SDS011;41883;49.544;8.646;2022-09-03T03:08:44;1.48;;;0.77;;
55684;SDS011;41883;49.544;8.646;2022-09-03T03:11:10;1.30;;;0.80;;
55684;SDS011;41883;49.544;8.646;2022-09-03T03:13:36;1.77;;;0.82;;
55684;SDS011;41883;49.544;8.646;2022-09-03T03:16:03;1.30;;;0.80;;
55684;SDS011;41883;49.544;8.646;2022-09-03T03:18:33;1.88;;;0.73;;
55684;SDS011;41883;49.544;8.646;2022-09-03T03:21:05;1.50;;;0.90;;
55684;SDS011;41883;49.544;8.646;2022-09-03T03:23:32;1.40;;;0.90;;
55684;SDS011;41883;49.544;8.646;2022-09-03T03:25:59;1.08;;;0.70;;
55684;SDS011;41883;49.544;8.646;2022-09-03T03:28:26;1.85;;;0.80;;
55684;SDS011;41883;49.544;8.646;2022-09-03T03:30:51;1.00;;;0.70;;
55684;SDS011;41883;49.544;8.646;2022-09-03T03:33:17;1.67;;;0.80;;
55684;SDS011;41883;49.544;8.646;2022-09-03T03:35:42;1.20;;;0.70;;
55684;SDS011;41883;49.544;8.646;2022-09-03T03:38:07;0.95;;;0.70;;
55684;SDS011;41883;49.544;8.646;2022-09-03T03:40:33;1.00;;;0.57;;
55684;SDS011;41883;49.544;8.646;2022-09-03T03:42:58;2.08;;;1.10;;
55684;SDS011;41883;49.544;8.646;2022-09-03T03:45:24;2.17;;;0.88;;
55684;SDS011;41883;49.544;8.646;2022-09-03T03:47:49;1.05;;;0.77;;
55684;SDS011;41883;49.544;8.646;2022-09-03T03:50:14;1.52;;;0.82;;
55684;SDS011;41883;49.544;8.646;2022-09-03T03:52:40;2.28;;;0.75;;
55684;SDS011;41883;49.544;8.646;2022-09-03T03:55:06;0.70;;;0.60;;
55684;SDS011;41883;49.544;8.646;2022-09-03T03:57:31;0.95;;;0.70;;
55684;SDS011;41883;49.544;8.646;2022-09-03T03:59:57;1.63;;;0.70;;
55684;SDS011;41883;49.544;8.646;2022-09-03T04:02:22;1.35;;;0.90;;
55684;SDS011;41883;49.544;8.646;2022-09-03T04:04:47;1.00;;;0.70;;
55684;SDS011;41883;49.544;8.646;2022-09-03T04:07:13;1.52;;;0.80;;
55684;SDS011;41883;49.544;8.646;2022-09-03T04:09:38;2.55;;;0.70;;
55684;SDS011;41883;49.544;8.646;2022-09-03T04:12:03;1.30;;;0.70;;
55684;SDS011;41883;49.544;8.646;2022-09-03T04:14:32;1.25;;;0.77;;
55684;SDS011;41883;49.544;8.646;2022-09-03T04:16:59;1.83;;;0.90;;
55684;SDS011;41883;49.544;8.646;2022-09-03T04:19:25;1.63;;;0.65;;
55684;SDS011;41883;49.544;8.646;2022-09-03T04:21:53;1.42;;;0.90;;
55684;SDS011;41883;49.544;8.646;2022-09-03T04:24:18;1.65;;;0.80;;
55684;SDS011;41883;49.544;8.646;2022-09-03T04:26:44;1.27;;;0.80;;
55684;SDS011;41883;49.544;8.646;2022-09-03T04:29:09;1.52;;;0.88;;
55684;SDS011;41883;49.544;8.646;2022-09-03T04:31:35;1.70;;;1.00;;
55684;SDS011;41883;49.544;8.646;2022-09-03T04:34:02;1.50;;;0.88;;
55684;SDS011;41883;49.544;8.646;2022-09-03T04:36:30;1.45;;;0.90;;
55684;SDS011;41883;49.544;8.646;2022-09-03T04:38:57;1.48;;;0.80;;
55684;SDS011;41883;49.544;8.646;2022-09-03T04:41:25;2.85;;;1.00;;
55684;SDS011;41883;49.544;8.646;2022-09-03T04:43:52;1.63;;;0.90;;
55684;SDS011;41883;49.544;8.646;2022-09-03T04:46:19;1.60;;;0.98;;
55684;SDS011;41883;49.544;8.646;2022-09-03T04:48:51;1.63;;;1.00;;
55684;SDS011;41883;49.544;8.646;2022-09-03T04:51:19;1.73;;;0.90;;
55684;SDS011;41883;49.544;8.646;2022-09-03T04:53:55;2.88;;;0.98;;
55684;SDS011;41883;49.544;8.646;2022-09-03T04:56:25;1.17;;;0.90;;
55684;SDS011;41883;49.544;8.646;2022-09-03T04:58:59;1.92;;;0.95;;
55684;SDS011;41883;49.544;8.646;2022-09-03T05:01:27;1.98;;;1.00;;
55684;SDS011;41883;49.544;8.646;2022-09-03T05:03:54;1.70;;;0.90;;
55684;SDS011;41883;49.544;8.646;2022-09-03T05:06:21;1.40;;;0.80;;
55684;SDS011;41883;49.544;8.646;2022-09-03T05:08:49;2.40;;;0.95;;
55684;SDS011;41883;49.544;8.646;2022-09-03T05:11:15;2.33;;;1.23;;
55684;SDS011;41883;49.544;8.646;2022-09-03T05:13:40;2.33;;;1.10;;
55684;SDS011;41883;49.544;8.646;2022-09-03T05:16:09;1.98;;;1.10;;
55684;SDS011;41883;49.544;8.646;2022-09-03T05:18:35;1.48;;;1.10;;
55684;SDS011;41883;49.544;8.646;2022-09-03T05:21:02;1.77;;;0.95;;
55684;SDS011;41883;49.544;8.646;2022-09-03T05:23:30;2.40;;;1.25;;
55684;SDS011;41883;49.544;8.646;2022-09-03T05:25:57;1.45;;;1.10;;
55684;SDS011;41883;49.544;8.646;2022-09-03T05:28:24;2.05;;;1.15;;
55684;SDS011;41883;49.544;8.646;2022-09-03T05:31:01;1.60;;;1.00;;
55684;SDS011;41883;49.544;8.646;2022-09-03T05:33:28;1.55;;;1.10;;
55684;SDS011;41883;49.544;8.646;2022-09-03T05:35:59;2.15;;;0.95;;
55684;SDS011;41883;49.544;8.646;2022-09-03T05:38:26;1.35;;;0.90;;
55684;SDS011;41883;49.544;8.646;2022-09-03T05:40:51;2.55;;;1.00;;
55684;SDS011;41883;49.544;8.646;2022-09-03T05:43:16;1.20;;;0.90;;
55684;SDS011;41883;49.544;8.646;2022-09-03T05:45:42;2.10;;;1.05;;
55684;SDS011;41883;49.544;8.646;2022-09-03T05:48:07;1.80;;;0.95;;
55684;SDS011;41883;49.544;8.646;2022-09-03T05:50:32;1.90;;;1.10;;
55684;SDS011;41883;49.544;8.646;2022-09-03T05:52:57;1.98;;;1.08;;
55684;SDS011;41883;49.544;8.646;2022-09-03T05:55:23;1.77;;;0.93;;
55684;SDS011;41883;49.544;8.646;2022-09-03T05:57:51;1.40;;;1.00;;
55684;SDS011;41883;49.544;8.646;2022-09-03T06:00:16;1.60;;;1.13;;
55684;SDS011;41883;49.544;8.646;2022-09-03T06:02:48;1.20;;;1.00;;
55684;SDS011;41883;49.544;8.646;2022-09-03T06:05:14;1.55;;;1.00;;
55684;SDS011;41883;49.544;8.646;2022-09-03T06:07:40;2.30;;;1.00;;
55684;SDS011;41883;49.544;8.646;2022-09-03T06:10:06;1.25;;;0.80;;
55684;SDS011;41883;49.544;8.646;2022-09-03T06:12:32;1.15;;;0.80;;
55684;SDS011;41883;49.544;8.646;2022-09-03T06:14:57;1.48;;;0.80;;
55684;SDS011;41883;49.544;8.646;2022-09-03T06:17:22;1.10;;;0.70;;
55684;SDS011;41883;49.544;8.646;2022-09-03T06:19:48;0.88;;;0.70;;
55684;SDS011;41883;49.544;8.646;2022-09-03T06:22:13;0.68;;;0.60;;
55684;SDS011;41883;49.544;8.646;2022-09-03T06:24:38;1.35;;;0.80;;
55684;SDS011;41883;49.544;8.646;2022-09-03T06:27:04;0.90;;;0.70;;
55684;SDS011;41883;49.544;8.646;2022-09-03T06:29:29;1.03;;;0.80;;
55684;SDS011;41883;49.544;8.646;2022-09-03T06:31:54;1.15;;;0.90;;
55684;SDS011;41883;49.544;8.646;2022-09-03T06:34:20;1.75;;;1.00;;
55684;SDS011;41883;49.544;8.646;2022-09-03T06:36:46;1.63;;;0.98;;
55684;SDS011;41883;49.544;8.646;2022-09-03T06:39:12;0.88;;;0.70;;
55684;SDS011;41883;49.544;8.646;2022-09-03T06:41:37;1.25;;;0.80;;
55684;SDS011;41883;49.544;8.646;2022-09-03T06:44:04;1.20;;;0.80;;
55684;SDS011;41883;49.544;8.646;2022-09-03T06:46:35;1.95;;;0.90;;
55684;SDS011;41883;49.544;8.646;2022-09-03T06:49:02;2.38;;;0.90;;
55684;SDS011;41883;49.544;8.646;2022-09-03T06:51:29;1.13;;;0.80;;
55684;SDS011;41883;49.544;8.646;2022-09-03T06:54:04;1.20;;;0.70;;
55684;SDS011;41883;49.544;8.646;2022-09-03T06:56:31;1.48;;;0.80;;
55684;SDS011;41883;49.544;8.646;2022-09-03T06:58:57;2.05;;;0.90;;
55684;SDS011;41883;49.544;8.646;2022-09-03T07:01:24;1.13;;;0.82;;
55684;SDS011;41883;49.544;8.646;2022-09-03T07:03:55;0.93;;;0.70;;
55684;SDS011;41883;49.544;8.646;2022-09-03T07:06:23;1.30;;;0.70;;
55684;SDS011;41883;49.544;8.646;2022-09-03T07:08:49;1.10;;;0.90;;
55684;SDS011;41883;49.544;8.646;2022-09-03T07:11:17;1.90;;;0.90;;
55684;SDS011;41883;49.544;8.646;2022-09-03T07:13:47;1.15;;;0.70;;
55684;SDS011;41883;49.544;8.646;2022-09-03T07:16:17;2.08;;;1.10;;
55684;SDS011;41883;49.544;8.646;2022-09-03T07:18:44;1.42;;;0.95;;
55684;SDS011;41883;49.544;8.646;2022-09-03T07:21:13;1.30;;;0.90;;
55684;SDS011;41883;49.544;8.646;2022-09-03T07:23:43;1.23;;;0.85;;
55684;SDS011;41883;49.544;8.646;2022-09-03T07:26:10;1.10;;;0.80;;
55684;SDS011;41883;49.544;8.646;2022-09-03T07:28:40;1.40;;;0.93;;
55684;SDS011;41883;49.544;8.646;2022-09-03T07:31:08;1.33;;;0.90;;
55684;SDS011;41883;49.544;8.646;2022-09-03T07:33:36;1.95;;;1.25;;
55684;SDS011;41883;49.544;8.646;2022-09-03T07:36:03;2.42;;;1.38;;
55684;SDS011;41883;49.544;8.646;2022-09-03T07:38:30;2.50;;;1.40;;
55684;SDS011;41883;49.544;8.646;2022-09-03T07:40:57;2.38;;;1.33;;
55684;SDS011;41883;49.544;8.646;2022-09-03T07:43:24;3.10;;;1.65;;
55684;SDS011;41883;49.544;8.646;2022-09-03T07:45:53;3.20;;;1.90;;
55684;SDS011;41883;49.544;8.646;2022-09-03T07:48:19;3.85;;;1.70;;
55684;SDS011;41883;49.544;8.646;2022-09-03T07:50:45;2.47;;;1.55;;
55684;SDS011;41883;49.544;8.646;2022-09-03T07:55:37;2.43;;;1.50;;
55684;SDS011;41883;49.544;8.646;2022-09-03T07:58:02;2.90;;;1.45;;
55684;SDS011;41883;49.544;8.646;2022-09-03T08:00:27;2.13;;;1.52;;
55684;SDS011;41883;49.544;8.646;2022-09-03T08:02:53;2.28;;;1.60;;
55684;SDS011;41883;49.544;8.646;2022-09-03T08:05:18;3.10;;;1.80;;
55684;SDS011;41883;49.544;8.646;2022-09-03T08:07:45;3.67;;;1.92;;
55684;SDS011;41883;49.544;8.646;2022-09-03T08:10:10;2.85;;;1.90;;
55684;SDS011;41883;49.544;8.646;2022-09-03T08:12:37;4.50;;;2.20;;
55684;SDS011;41883;49.544;8.646;2022-09-03T08:15:03;7.65;;;3.05;;
55684;SDS011;41883;49.544;8.646;2022-09-03T08:17:29;3.33;;;2.05;;
55684;SDS011;41883;49.544;8.646;2022-09-03T08:19:54;4.22;;;2.03;;
55684;SDS011;41883;49.544;8.646;2022-09-03T08:22:21;4.47;;;2.50;;
55684;SDS011;41883;49.544;8.646;2022-09-03T08:24:46;3.78;;;1.95;;
55684;SDS011;41883;49.544;8.646;2022-09-03T08:27:12;3.67;;;2.20;;
55684;SDS011;41883;49.544;8.646;2022-09-03T08:29:38;2.72;;;1.88;;
55684;SDS011;41883;49.544;8.646;2022-09-03T08:32:03;2.63;;;2.03;;
55684;SDS011;41883;49.544;8.646;2022-09-03T08:34:29;4.30;;;2.22;;
55684;SDS011;41883;49.544;8.646;2022-09-03T08:36:54;3.92;;;2.40;;
55684;SDS011;41883;49.544;8.646;2022-09-03T08:39:19;3.13;;;2.17;;
55684;SDS011;41883;49.544;8.646;2022-09-03T08:44:29;3.40;;;2.00;;
55684;SDS011;41883;49.544;8.646;2022-09-03T08:49:34;3.22;;;1.80;;
55684;SDS011;41883;49.544;8.646;2022-09-03T08:52:14;4.78;;;2.42;;
55684;SDS011;41883;49.544;8.646;2022-09-03T08:54:48;4.53;;;2.43;;
55684;SDS011;41883;49.544;8.646;2022-09-03T08:57:15;3.28;;;2.00;;
55684;SDS011;41883;49.544;8.646;2022-09-03T08:59:44;4.18;;;2.08;;
55684;SDS011;41883;49.544;8.646;2022-09-03T09:02:31;2.80;;;1.80;;
55684;SDS011;41883;49.544;8.646;2022-09-03T09:05:16;4.18;;;1.70;;
55684;SDS011;41883;49.544;8.646;2022-09-03T09:10:40;2.65;;;1.90;;
55684;SDS011;41883;49.544;8.646;2022-09-03T09:13:16;1.92;;;1.60;;
55684;SDS011;41883;49.544;8.646;2022-09-03T09:21:56;3.22;;;1.80;;
55684;SDS011;41883;49.544;8.646;2022-09-03T09:24:25;3.15;;;1.50;;
55684;SDS011;41883;49.544;8.646;2022-09-03T09:26:57;2.15;;;1.27;;
55684;SDS011;41883;49.544;8.646;2022-09-03T09:29:25;4.43;;;2.13;;
55684;SDS011;41883;49.544;8.646;2022-09-03T09:34:20;2.75;;;1.90;;
55684;SDS011;41883;49.544;8.646;2022-09-03T09:36:47;2.90;;;1.70;;
55684;SDS011;41883;49.544;8.646;2022-09-03T09:39:14;3.30;;;1.63;;
55684;SDS011;41883;49.544;8.646;2022-09-03T09:41:40;3.85;;;2.80;;
55684;SDS011;41883;49.544;8.646;2022-09-03T09:44:06;3.35;;;2.05;;
55684;SDS011;41883;49.544;8.646;2022-09-03T09:46:38;4.25;;;2.80;;
55684;SDS011;41883;49.544;8.646;2022-09-03T09:52:04;3.25;;;2.50;;
55684;SDS011;41883;49.544;8.646;2022-09-03T09:56:59;3.58;;;2.60;;
55684;SDS011;41883;49.544;8.646;2022-09-03T09:59:26;2.17;;;1.85;;
55684;SDS011;41883;49.544;8.646;2022-09-03T10:04:29;3.95;;;2.50;;
55684;SDS011;41883;49.544;8.646;2022-09-03T10:12:12;3.53;;;2.22;;
55684;SDS011;41883;49.544;8.646;2022-09-03T10:14:44;4.55;;;2.60;;
55684;SDS011;41883;49.544;8.646;2022-09-03T10:17:17;2.83;;;2.03;;
55684;SDS011;41883;49.544;8.646;2022-09-03T10:20:08;3.92;;;2.40;;
55684;SDS011;41883;49.544;8.646;2022-09-03T10:25:21;4.78;;;2.22;;
55684;SDS011;41883;49.544;8.646;2022-09-03T10:27:51;3.78;;;2.05;;
55684;SDS011;41883;49.544;8.646;2022-09-03T10:30:18;2.38;;;1.83;;
55684;SDS011;41883;49.544;8.646;2022-09-03T10:32:46;2.13;;;1.40;;
55684;SDS011;41883;49.544;8.646;2022-09-03T10:35:23;2.67;;;1.60;;
55684;SDS011;41883;49.544;8.646;2022-09-03T10:38:35;2.60;;;1.50;;
55684;SDS011;41883;49.544;8.646;2022-09-03T10:43:24;2.35;;;1.40;;
55684;SDS011;41883;49.544;8.646;2022-09-03T10:46:21;1.60;;;1.30;;
55684;SDS011;41883;49.544;8.646;2022-09-03T10:51:33;3.35;;;1.70;;
55684;SDS011;41883;49.544;8.646;2022-09-03T10:59:38;2.65;;;1.30;;
55684;SDS011;41883;49.544;8.646;2022-09-03T11:05:04;2.25;;;1.27;;
55684;SDS011;41883;49.544;8.646;2022-09-03T11:07:52;1.75;;;1.10;;
55684;SDS011;41883;49.544;8.646;2022-09-03T11:10:26;1.52;;;1.00;;
55684;SDS011;41883;49.544;8.646;2022-09-03T11:18:24;1.45;;;0.98;;
55684;SDS011;41883;49.544;8.646;2022-09-03T11:21:14;2.42;;;0.90;;
55684;SDS011;41883;49.544;8.646;2022-09-03T11:23:45;1.80;;;1.00;;
55684;SDS011;41883;49.544;8.646;2022-09-03T11:26:16;1.33;;;0.85;;
55684;SDS011;41883;49.544;8.646;2022-09-03T12:17:25;1.40;;;0.70;;
55684;SDS011;41883;49.544;8.646;2022-09-03T12:19:56;0.70;;;0.50;;
55684;SDS011;41883;49.544;8.646;2022-09-03T12:22:23;0.60;;;0.50;;
55684;SDS011;41883;49.544;8.646;2022-09-03T12:24:52;0.50;;;0.50;;
55684;SDS011;41883;49.544;8.646;2022-09-03T12:27:22;0.70;;;0.60;;
55684;SDS011;41883;49.544;8.646;2022-09-03T12:29:59;0.63;;;0.50;;
55684;SDS011;41883;49.544;8.646;2022-09-03T12:32:29;0.63;;;0.60;;
55684;SDS011;41883;49.544;8.646;2022-09-03T12:37:23;1.25;;;0.95;;
55684;SDS011;41883;49.544;8.646;2022-09-03T12:39:53;1.50;;;0.80;;
55684;SDS011;41883;49.544;8.646;2022-09-03T12:42:26;0.80;;;0.60;;
55684;SDS011;41883;49.544;8.646;2022-09-03T12:44:54;0.95;;;0.60;;
55684;SDS011;41883;49.544;8.646;2022-09-03T12:47:21;2.00;;;0.70;;
55684;SDS011;41883;49.544;8.646;2022-09-03T12:49:49;1.27;;;0.70;;
55684;SDS011;41883;49.544;8.646;2022-09-03T12:55:00;2.78;;;0.95;;
55684;SDS011;41883;49.544;8.646;2022-09-03T12:57:28;1.35;;;0.82;;
55684;SDS011;41883;49.544;8.646;2022-09-03T12:59:58;1.30;;;0.80;;
55684;SDS011;41883;49.544;8.646;2022-09-03T13:02:31;0.90;;;0.60;;
55684;SDS011;41883;49.544;8.646;2022-09-03T13:05:03;1.17;;;0.85;;
55684;SDS011;41883;49.544;8.646;2022-09-03T13:07:32;1.50;;;0.80;;
55684;SDS011;41883;49.544;8.646;2022-09-03T13:10:05;1.20;;;0.90;;
55684;SDS011;41883;49.544;8.646;2022-09-03T13:12:42;1.75;;;1.00;;
55684;SDS011;41883;49.544;8.646;2022-09-03T13:15:18;1.40;;;1.02;;
55684;SDS011;41883;49.544;8.646;2022-09-03T13:23:33;1.95;;;0.80;;
55684;SDS011;41883;49.544;8.646;2022-09-03T13:31:51;1.98;;;1.20;;
55684;SDS011;41883;49.544;8.646;2022-09-03T13:34:21;2.33;;;1.00;;
55684;SDS011;41883;49.544;8.646;2022-09-03T13:36:56;2.17;;;1.20;;
55684;SDS011;41883;49.544;8.646;2022-09-03T13:41:56;1.87;;;1.00;;
55684;SDS011;41883;49.544;8.646;2022-09-03T13:47:25;1.25;;;1.00;;
55684;SDS011;41883;49.544;8.646;2022-09-03T13:50:10;3.45;;;1.15;;
55684;SDS011;41883;49.544;8.646;2022-09-03T13:55:36;1.25;;;1.00;;
55684;SDS011;41883;49.544;8.646;2022-09-03T13:58:25;1.95;;;1.00;;
55684;SDS011;41883;49.544;8.646;2022-09-03T14:03:35;1.38;;;1.10;;
55684;SDS011;41883;49.544;8.646;2022-09-03T14:09:19;1.73;;;1.15;;
55684;SDS011;41883;49.544;8.646;2022-09-03T14:22:17;1.52;;;1.35;;
55684;SDS011;41883;49.544;8.646;2022-09-03T14:25:02;2.20;;;1.70;;
55684;SDS011;41883;49.544;8.646;2022-09-03T14:27:35;2.97;;;1.90;;
55684;SDS011;41883;49.544;8.646;2022-09-03T14:30:47;2.53;;;1.55;;
55684;SDS011;41883;49.544;8.646;2022-09-03T14:36:05;2.30;;;1.73;;
55684;SDS011;41883;49.544;8.646;2022-09-03T14:38:44;2.30;;;1.83;;
55684;SDS011;41883;49.544;8.646;2022-09-03T14:41:26;2.22;;;1.70;;
55684;SDS011;41883;49.544;8.646;2022-09-03T14:46:57;2.47;;;1.92;;
55684;SDS011;41883;49.544;8.646;2022-09-03T14:58:13;3.15;;;2.58;;
55684;SDS011;41883;49.544;8.646;2022-09-03T15:00:50;4.10;;;2.45;;
55684;SDS011;41883;49.544;8.646;2022-09-03T15:09:09;3.13;;;2.10;;
55684;SDS011;41883;49.544;8.646;2022-09-03T15:11:47;4.13;;;2.00;;
55684;SDS011;41883;49.544;8.646;2022-09-03T15:28:34;2.90;;;2.30;;
55684;SDS011;41883;49.544;8.646;2022-09-03T15:31:17;3.42;;;2.40;;
55684;SDS011;41883;49.544;8.646;2022-09-03T15:36:48;2.63;;;2.10;;
55684;SDS011;41883;49.544;8.646;2022-09-03T15:39:33;2.83;;;2.20;;
55684;SDS011;41883;49.544;8.646;2022-09-03T15:42:06;2.85;;;2.13;;
55684;SDS011;41883;49.544;8.646;2022-09-03T15:44:44;2.75;;;2.20;;
55684;SDS011;41883;49.544;8.646;2022-09-03T15:50:13;3.20;;;2.05;;
55684;SDS011;41883;49.544;8.646;2022-09-03T15:52:58;3.28;;;2.50;;
55684;SDS011;41883;49.544;8.646;2022-09-03T15:55:38;4.03;;;2.70;;
55684;SDS011;41883;49.544;8.646;2022-09-03T15:58:18;3.47;;;2.70;;
55684;SDS011;41883;49.544;8.646;2022-09-03T16:00:58;4.53;;;2.33;;
55684;SDS011;41883;49.544;8.646;2022-09-03T16:06:01;3.50;;;3.10;;
55684;SDS011;41883;49.544;8.646;2022-09-03T16:25:01;2.33;;;2.13;;
55684;SDS011;41883;49.544;8.646;2022-09-03T16:27:51;2.90;;;2.10;;
55684;SDS011;41883;49.544;8.646;2022-09-03T16:35:55;2.75;;;1.95;;
55684;SDS011;41883;49.544;8.646;2022-09-03T16:41:28;2.50;;;1.95;;
55684;SDS011;41883;49.544;8.646;2022-09-03T16:46:32;2.47;;;2.00;;
55684;SDS011;41883;49.544;8.646;2022-09-03T16:49:08;2.50;;;1.80;;
55684;SDS011;41883;49.544;8.646;2022-09-03T16:57:18;3.13;;;1.70;;
55684;SDS011;41883;49.544;8.646;2022-09-03T16:59:48;3.53;;;1.90;;
55684;SDS011;41883;49.544;8.646;2022-09-03T17:16:03;2.13;;;1.70;;
55684;SDS011;41883;49.544;8.646;2022-09-03T17:26:41;3.10;;;1.35;;
55684;SDS011;41883;49.544;8.646;2022-09-03T17:34:41;2.60;;;1.80;;
55684;SDS011;41883;49.544;8.646;2022-09-03T17:37:31;2.03;;;1.40;;
55684;SDS011;41883;49.544;8.646;2022-09-03T17:43:19;2.08;;;1.40;;
55684;SDS011;41883;49.544;8.646;2022-09-03T17:45:50;1.83;;;1.30;;
55684;SDS011;41883;49.544;8.646;2022-09-03T17:48:37;2.10;;;1.30;;
55684;SDS011;41883;49.544;8.646;2022-09-03T17:54:06;1.45;;;1.10;;
55684;SDS011;41883;49.544;8.646;2022-09-03T18:02:00;2.00;;;1.40;;
55684;SDS011;41883;49.544;8.646;2022-09-03T18:04:42;1.98;;;1.20;;
55684;SDS011;41883;49.544;8.646;2022-09-03T18:07:27;1.52;;;1.23;;
55684;SDS011;41883;49.544;8.646;2022-09-03T18:10:06;1.75;;;1.30;;
55684;SDS011;41883;49.544;8.646;2022-09-03T18:15:35;1.77;;;1.30;;
55684;SDS011;41883;49.544;8.646;2022-09-03T18:18:11;1.92;;;1.35;;
55684;SDS011;41883;49.544;8.646;2022-09-03T18:20:51;2.42;;;1.40;;
55684;SDS011;41883;49.544;8.646;2022-09-03T18:23:47;2.28;;;1.42;;
55684;SDS011;41883;49.544;8.646;2022-09-03T18:26:39;1.90;;;1.20;;
55684;SDS011;41883;49.544;8.646;2022-09-03T18:32:22;2.13;;;1.58;;
55684;SDS011;41883;49.544;8.646;2022-09-03T18:35:06;2.38;;;1.73;;
55684;SDS011;41883;49.544;8.646;2022-09-03T18:37:51;2.00;;;1.50;;
55684;SDS011;41883;49.544;8.646;2022-09-03T18:40:45;2.72;;;1.30;;
55684;SDS011;41883;49.544;8.646;2022-09-03T18:46:31;2.22;;;1.42;;
55684;SDS011;41883;49.544;8.646;2022-09-03T18:49:27;2.67;;;1.55;;
55684;SDS011;41883;49.544;8.646;2022-09-03T18:55:19;2.70;;;1.70;;
55684;SDS011;41883;49.544;8.646;2022-09-03T18:58:19;2.72;;;1.75;;
55684;SDS011;41883;49.544;8.646;2022-09-03T19:01:10;2.15;;;1.70;;
55684;SDS011;41883;49.544;8.646;2022-09-03T19:04:06;2.25;;;1.80;;
55684;SDS011;41883;49.544;8.646;2022-09-03T19:07:39;3.17;;;1.70;;
55684;SDS011;41883;49.544;8.646;2022-09-03T19:13:41;2.22;;;1.80;;
55684;SDS011;41883;49.544;8.646;2022-09-03T19:19:47;2.20;;;1.70;;
55684;SDS011;41883;49.544;8.646;2022-09-03T19:22:44;2.72;;;1.80;;
55684;SDS011;41883;49.544;8.646;2022-09-03T19:25:28;2.20;;;1.70;;
55684;SDS011;41883;49.544;8.646;2022-09-03T19:28:17;2.63;;;1.95;;
55684;SDS011;41883;49.544;8.646;2022-09-03T19:31:12;2.42;;;1.85;;
55684;SDS011;41883;49.544;8.646;2022-09-03T19:46:04;3.25;;;2.08;;
55684;SDS011;41883;49.544;8.646;2022-09-03T19:49:21;2.88;;;2.03;;
55684;SDS011;41883;49.544;8.646;2022-09-03T19:55:11;2.67;;;1.98;;
55684;SDS011;41883;49.544;8.646;2022-09-03T19:58:02;3.20;;;2.15;;
55684;SDS011;41883;49.544;8.646;2022-09-03T20:00:46;3.20;;;2.08;;
55684;SDS011;41883;49.544;8.646;2022-09-03T20:03:30;2.55;;;1.90;;
55684;SDS011;41883;49.544;8.646;2022-09-03T20:06:14;2.92;;;2.22;;
55684;SDS011;41883;49.544;8.646;2022-09-03T20:09:01;3.42;;;2.10;;
55684;SDS011;41883;49.544;8.646;2022-09-03T20:11:50;2.00;;;1.70;;
55684;SDS011;41883;49.544;8.646;2022-09-03T20:14:17;3.15;;;2.20;;
55684;SDS011;41883;49.544;8.646;2022-09-03T20:22:52;2.20;;;1.83;;
55684;SDS011;41883;49.544;8.646;2022-09-03T20:33:39;3.22;;;2.47;;
55684;SDS011;41883;49.544;8.646;2022-09-03T20:36:28;2.50;;;2.05;;
55684;SDS011;41883;49.544;8.646;2022-09-03T20:39:12;2.90;;;1.90;;
55684;SDS011;41883;49.544;8.646;2022-09-03T20:44:19;2.05;;;1.65;;
55684;SDS011;41883;49.544;8.646;2022-09-03T20:52:41;3.67;;;2.95;;
55684;SDS011;41883;49.544;8.646;2022-09-03T21:00:54;3.15;;;2.10;;
55684;SDS011;41883;49.544;8.646;2022-09-03T21:03:24;2.67;;;2.13;;
55684;SDS011;41883;49.544;8.646;2022-09-03T21:09:04;3.42;;;2.25;;
55684;SDS011;41883;49.544;8.646;2022-09-03T21:12:02;2.60;;;1.90;;
55684;SDS011;41883;49.544;8.646;2022-09-03T21:19:59;2.50;;;2.00;;
55684;SDS011;41883;49.544;8.646;2022-09-03T21:23:06;2.47;;;2.08;;
55684;SDS011;41883;49.544;8.646;2022-09-03T21:28:58;2.78;;;2.10;;
55684;SDS011;41883;49.544;8.646;2022-09-03T21:31:25;2.83;;;2.33;;
55684;SDS011;41883;49.544;8.646;2022-09-03T21:34:06;2.97;;;2.08;;
55684;SDS011;41883;49.544;8.646;2022-09-03T21:36:37;3.47;;;2.30;;
55684;SDS011;41883;49.544;8.646;2022-09-03T21:39:13;3.40;;;2.50;;
55684;SDS011;41883;49.544;8.646;2022-09-03T21:44:36;2.70;;;2.08;;
55684;SDS011;41883;49.544;8.646;2022-09-03T21:47:22;3.20;;;2.13;;
55684;SDS011;41883;49.544;8.646;2022-09-03T21:49:59;2.78;;;2.35;;
55684;SDS011;41883;49.544;8.646;2022-09-03T21:52:36;2.78;;;2.30;;
55684;SDS011;41883;49.544;8.646;2022-09-03T21:55:30;2.97;;;2.30;;